Attleboro, Massachusetts
Current Conditions -  °F | °C
As of 2:55 AM on Sunday 26 Oct 2014 (Local Time) from KSFZ Reporting Station
Broken Clouds Broken Clouds  
Wind Chill: 12°   Ceiling: 12000
Heat Index: 12°   Visibility: 10mi
Dew Point:   Wind: 7mph
Humidity: 54%   Direction: 280°W
Pressure: 29.48"   Gusts: NA
Location:  41.95°N, 71.28°W
Report Text: KSFZ 260655Z 28006KT 10SM BKN120 12/03 A2948 RMK AO1
Loading
Personal Weather Stations






























Interactive Weather Map
Tropical Storm Tracking
New forecast layout! Learn more

10-Day Weather Forecast

Advertisements
Track Severe Weather on mobile